Time;durP1;ratioP1;P1;durP2;ratioP2;P2;SDS_P1;SDS_P2;PMS_P1;PMS_P2;Temp;Humidity;BMP_temperature;BMP_pressure;BME280_temperature;BME280_humidity;BME280_pressure;Samples;Min_cycle;Max_cycle;Signal;HPM_P1;HPM_P2
2023/07/29 00:00:07;;;;;;;5.93;4.50;;;;;;;21.13;77.37;100170.31;685724;28;1118;-79
2023/07/29 00:00:33;;;;;;;5.72;4.57;;;;;;;21.15;77.30;100173.81;684196;29;1066;-81
2023/07/29 00:00:55;;;;;;;5.15;4.20;;;;;;;21.13;77.38;100177.44;686101;29;950;-80
2023/07/29 00:01:15;;;;;;;5.10;4.30;;;;;;;21.12;77.23;100173.00;685532;28;977;-80
2023/07/29 00:01:36;;;;;;;5.70;4.57;;;;;;;21.14;77.15;100176.50;689213;28;1162;-79
2023/07/29 00:01:57;;;;;;;5.68;4.55;;;;;;;21.10;77.22;100173.91;691401;28;887;-79
2023/07/29 00:02:18;;;;;;;5.50;4.50;;;;;;;21.15;77.11;100180.91;685267;28;1047;-79
2023/07/29 00:02:38;;;;;;;4.90;4.30;;;;;;;21.14;77.21;100176.50;685921;28;935;-79
2023/07/29 00:02:59;;;;;;;5.23;4.20;;;;;;;21.16;76.87;100174.69;686230;28;800;-80
2023/07/29 00:03:19;;;;;;;6.03;4.32;;;;;;;21.13;77.08;100182.72;685710;28;1914;-80
2023/07/29 00:03:40;;;;;;;6.63;4.35;;;;;;;21.12;77.23;100173.00;686169;28;1077;-80
2023/07/29 00:04:02;;;;;;;6.47;4.68;;;;;;;21.13;77.02;100172.97;688606;28;1271;-81
2023/07/29 00:04:22;;;;;;;5.75;4.65;;;;;;;21.18;77.15;100186.13;688344;28;1179;-80
2023/07/29 00:04:43;;;;;;;5.20;4.50;;;;;;;21.15;77.10;100172.94;688316;28;1153;-80
2023/07/29 00:05:04;;;;;;;5.32;4.40;;;;;;;21.13;77.36;100172.13;685342;28;1425;-79
2023/07/29 00:05:25;;;;;;;5.55;4.50;;;;;;;21.13;77.22;100172.13;682668;29;1161;-79
2023/07/29 00:05:45;;;;;;;7.40;4.72;;;;;;;21.14;77.33;100184.47;677982;29;1201;-80
2023/07/29 00:06:06;;;;;;;6.80;4.60;;;;;;;21.18;77.11;100176.41;685630;28;1155;-79
2023/07/29 00:06:27;;;;;;;8.93;4.80;;;;;;;21.16;77.14;100182.66;687800;28;1010;-79
2023/07/29 00:06:48;;;;;;;7.10;4.65;;;;;;;21.15;77.21;100170.28;688338;28;910;-80
2023/07/29 00:07:08;;;;;;;7.10;4.60;;;;;;;21.17;76.98;100173.78;682794;28;1155;-80
2023/07/29 00:07:29;;;;;;;5.03;4.47;;;;;;;21.13;77.21;100170.31;682256;29;1215;-80
2023/07/29 00:07:49;;;;;;;6.30;4.77;;;;;;;21.13;77.20;100161.50;682868;28;1009;-79
2023/07/29 00:08:10;;;;;;;6.60;4.90;;;;;;;21.13;77.25;100166.81;682843;29;1246;-79
2023/07/29 00:08:31;;;;;;;7.18;5.20;;;;;;;21.12;77.34;100165.06;687496;28;1287;-79
2023/07/29 00:08:52;;;;;;;6.57;5.00;;;;;;;21.14;77.27;100166.75;688461;28;815;-79
2023/07/29 00:09:12;;;;;;;6.55;5.07;;;;;;;21.18;77.10;100180.81;685717;28;1130;-79
2023/07/29 00:09:33;;;;;;;5.78;4.80;;;;;;;21.17;77.29;100179.06;684729;28;1241;-79
2023/07/29 00:09:54;;;;;;;6.80;4.77;;;;;;;21.10;77.22;100163.31;680342;29;761;-79
2023/07/29 00:10:14;;;;;;;6.93;4.70;;;;;;;21.13;77.31;100172.97;690004;28;1407;-79
2023/07/29 00:10:38;;;;;;;6.68;4.60;;;;;;;21.17;77.31;100173.78;684998;28;1666;-80
2023/07/29 00:11:04;;;;;;;5.93;4.40;;;;;;;21.14;77.27;100165.91;688381;28;1922;-79
2023/07/29 00:11:25;;;;;;;7.13;4.70;;;;;;;21.14;77.31;100163.25;685516;28;1326;-79
2023/07/29 00:11:46;;;;;;;7.65;4.85;;;;;;;21.17;77.13;100158.75;688311;28;1407;-78
2023/07/29 00:12:07;;;;;;;7.85;5.28;;;;;;;21.14;77.13;100163.25;688204;28;1036;-79
2023/07/29 00:12:28;;;;;;;7.10;5.10;;;;;;;21.17;77.11;100164.03;688173;28;1087;-79
2023/07/29 00:12:49;;;;;;;6.20;4.95;;;;;;;21.12;77.17;100154.44;684064;28;827;-79
2023/07/29 00:13:09;;;;;;;6.10;5.03;;;;;;;21.12;77.17;100163.28;688260;28;1055;-79
2023/07/29 00:13:30;;;;;;;6.65;5.18;;;;;;;21.13;77.13;100162.38;688345;28;1115;-79
2023/07/29 00:13:50;;;;;;;6.70;5.10;;;;;;;21.11;77.11;100156.25;685797;28;1161;-79
2023/07/29 00:14:11;;;;;;;6.53;4.85;;;;;;;21.17;77.23;100168.47;680078;29;1291;-80
2023/07/29 00:14:32;;;;;;;5.53;4.60;;;;;;;21.14;77.14;100157.94;682934;28;1338;-80
2023/07/29 00:14:52;;;;;;;5.67;4.80;;;;;;;21.12;77.12;100159.75;682997;28;1130;-79
2023/07/29 00:15:13;;;;;;;6.38;4.60;;;;;;;21.12;77.05;100159.75;682906;29;1021;-79
2023/07/29 00:15:33;;;;;;;6.97;4.70;;;;;;;21.10;76.99;100158.00;685065;28;1068;-79
2023/07/29 00:15:55;;;;;;;7.33;4.87;;;;;;;21.12;77.10;100157.09;685594;28;760;-79
2023/07/29 00:16:17;;;;;;;7.07;5.10;;;;;;;21.13;77.27;100162.38;687984;28;1017;-79
2023/07/29 00:16:37;;;;;;;6.72;4.90;;;;;;;21.12;77.22;100160.63;688202;28;1015;-79
2023/07/29 00:16:58;;;;;;;6.43;4.70;;;;;;;21.12;77.34;100157.97;685711;28;1014;-79
2023/07/29 00:17:19;;;;;;;6.90;4.57;;;;;;;21.12;77.21;100154.44;682462;29;1164;-79
2023/07/29 00:17:42;;;;;;;9.27;5.28;;;;;;;21.13;77.23;100161.50;685350;28;994;-79
2023/07/29 00:18:03;;;;;;;10.43;5.23;;;;;;;21.12;77.56;100154.44;682921;28;1151;-79
2023/07/29 00:18:23;;;;;;;9.70;5.50;;;;;;;21.12;77.06;100155.31;688020;28;1290;-79
2023/07/29 00:18:44;;;;;;;7.43;4.90;;;;;;;21.14;77.38;100155.28;688183;28;1049;-79
2023/07/29 00:19:06;;;;;;;6.45;4.80;;;;;;;21.13;77.41;100156.22;682923;28;1060;-79
2023/07/29 00:19:28;;;;;;;6.55;4.70;;;;;;;21.14;77.30;100152.63;687992;28;1067;-80
2023/07/29 00:19:49;;;;;;;6.20;4.70;;;;;;;21.14;77.32;100165.91;685602;28;855;-79
2023/07/29 00:20:10;;;;;;;6.22;4.78;;;;;;;21.15;77.33;100157.03;685667;28;1084;-79
2023/07/29 00:20:30;;;;;;;6.40;4.95;;;;;;;21.17;77.18;100158.75;684557;28;1311;-80
2023/07/29 00:20:51;;;;;;;6.67;4.90;;;;;;;21.17;77.21;100158.75;683887;28;834;-80
2023/07/29 00:21:11;;;;;;;6.28;5.00;;;;;;;21.15;77.22;100162.34;686820;28;1140;-79
2023/07/29 00:21:32;;;;;;;5.90;4.80;;;;;;;21.17;77.15;100165.81;683064;28;1133;-79
2023/07/29 00:21:52;;;;;;;6.20;5.20;;;;;;;21.18;77.12;100167.53;685595;28;1200;-79
2023/07/29 00:22:13;;;;;;;6.73;5.23;;;;;;;21.17;77.17;100165.81;688334;28;1240;-80
2023/07/29 00:22:34;;;;;;;6.80;5.27;;;;;;;21.13;77.04;100162.38;685212;28;1217;-80
2023/07/29 00:22:54;;;;;;;6.60;5.00;;;;;;;21.16;77.02;100172.03;683000;28;1162;-79
2023/07/29 00:23:18;;;;;;;7.60;5.38;;;;;;;21.17;77.00;100168.47;687962;28;1028;-79
2023/07/29 00:23:39;;;;;;;7.95;5.55;;;;;;;21.14;77.30;100168.56;690548;28;1902;-79
2023/07/29 00:24:01;;;;;;;7.03;5.50;;;;;;;21.12;77.28;100162.41;685454;28;1294;-79
2023/07/29 00:24:21;;;;;;;6.60;5.10;;;;;;;21.10;77.05;100165.09;685164;28;1149;-80
2023/07/29 00:24:42;;;;;;;6.63;5.20;;;;;;;21.16;77.43;100172.91;685393;28;1200;-79
2023/07/29 00:25:03;;;;;;;6.63;5.22;;;;;;;21.10;77.16;100163.31;680334;29;966;-79
2023/07/29 00:25:23;;;;;;;6.63;5.40;;;;;;;21.10;77.22;100165.09;682449;29;1357;-80
2023/07/29 00:25:44;;;;;;;6.45;5.30;;;;;;;21.13;77.39;100169.47;685144;28;1176;-79
2023/07/29 00:26:05;;;;;;;6.70;5.30;;;;;;;21.08;77.27;100170.44;688186;28;1147;-79
2023/07/29 00:26:28;;;;;;;6.00;5.05;;;;;;;21.07;77.27;100162.50;685357;28;1109;-79
2023/07/29 00:26:49;;;;;;;5.43;4.85;;;;;;;21.07;77.26;100168.72;682404;28;962;-79
2023/07/29 00:27:09;;;;;;;5.43;4.93;;;;;;;21.08;77.13;100165.13;688120;28;1224;-79
2023/07/29 00:27:30;;;;;;;5.70;5.10;;;;;;;21.04;77.21;100163.50;681990;28;1140;-80
2023/07/29 00:27:51;;;;;;;5.72;5.00;;;;;;;21.05;77.15;100159.03;682850;29;910;-80
2023/07/29 00:28:12;;;;;;;5.70;5.00;;;;;;;21.04;77.37;100168.78;682951;29;1156;-79
2023/07/29 00:28:33;;;;;;;5.82;5.00;;;;;;;21.02;77.46;100159.97;682623;28;1396;-79
2023/07/29 00:28:54;;;;;;;5.97;5.15;;;;;;;21.04;77.33;100170.56;688345;28;925;-79
2023/07/29 00:29:16;;;;;;;7.75;5.32;;;;;;;21.02;77.33;100175.91;690234;28;1379;-79
2023/07/29 00:29:36;;;;;;;8.60;5.43;;;;;;;21.02;77.53;100173.25;680175;28;1057;-79
2023/07/29 00:29:57;;;;;;;9.63;5.35;;;;;;;20.97;77.35;100164.56;682979;29;800;-79
2023/07/29 00:30:18;;;;;;;7.70;5.05;;;;;;;20.99;77.68;100165.38;682434;28;1453;-79
2023/07/29 00:30:38;;;;;;;8.27;5.07;;;;;;;20.94;77.53;100157.53;687898;28;1261;-79
2023/07/29 00:30:59;;;;;;;7.60;5.07;;;;;;;20.94;77.63;100169.91;688372;28;1268;-79
2023/07/29 00:31:21;;;;;;;7.35;5.13;;;;;;;20.95;77.97;100169.00;682623;28;1292;-79
2023/07/29 00:31:41;;;;;;;6.23;5.10;;;;;;;20.94;77.79;100165.50;685558;28;1007;-79
2023/07/29 00:32:02;;;;;;;5.82;5.07;;;;;;;20.93;77.66;100169.06;685631;28;1000;-80
2023/07/29 00:32:23;;;;;;;6.20;5.07;;;;;;;20.95;77.92;100169.00;685317;28;1037;-79
2023/07/29 00:32:44;;;;;;;5.32;4.70;;;;;;;20.95;77.86;100166.34;682747;28;1167;-79
2023/07/29 00:33:06;;;;;;;7.35;5.00;;;;;;;20.93;77.83;100163.75;685368;28;2028;-79
2023/07/29 00:33:27;;;;;;;8.70;4.93;;;;;;;20.94;77.86;100164.63;685318;28;1083;-79
2023/07/29 00:33:48;;;;;;;9.73;5.57;;;;;;;21.00;77.91;100172.41;682860;29;830;-79
2023/07/29 00:34:09;;;;;;;7.75;5.28;;;;;;;20.93;78.00;100165.53;680046;29;1517;-79
2023/07/29 00:34:30;;;;;;;8.02;5.22;;;;;;;20.96;77.98;100168.09;682344;28;1335;-80
2023/07/29 00:34:51;;;;;;;8.07;5.20;;;;;;;20.99;78.05;100173.34;683001;28;914;-79
2023/07/29 00:35:12;;;;;;;8.30;5.35;;;;;;;20.96;77.96;100171.63;683216;28;1415;-80
2023/07/29 00:35:34;;;;;;;6.50;5.50;;;;;;;20.98;77.99;100171.59;679858;29;1032;-79
2023/07/29 00:35:54;;;;;;;8.87;5.30;;;;;;;20.99;77.87;100173.34;688061;28;1109;-80
2023/07/29 00:36:15;;;;;;;9.33;5.57;;;;;;;20.93;77.76;100160.22;688530;28;1317;-79
2023/07/29 00:36:36;;;;;;;9.10;5.30;;;;;;;21.03;77.87;100176.78;685379;28;1024;-79
2023/07/29 00:36:57;;;;;;;6.43;5.30;;;;;;;20.94;77.95;100156.66;685520;28;1187;-80
2023/07/29 00:37:18;;;;;;;6.45;5.22;;;;;;;20.93;77.89;100161.09;679864;29;1185;-79
2023/07/29 00:37:40;;;;;;;7.20;5.60;;;;;;;20.95;78.01;100164.59;682750;29;965;-79
2023/07/29 00:38:01;;;;;;;7.10;5.70;;;;;;;20.96;77.97;100162.78;683061;29;780;-79
2023/07/29 00:38:21;;;;;;;7.30;5.70;;;;;;;20.97;77.99;100167.22;682502;29;1059;-78
2023/07/29 00:38:42;;;;;;;6.38;5.25;;;;;;;20.95;78.02;100164.59;685381;28;1141;-79
2023/07/29 00:39:03;;;;;;;7.22;5.50;;;;;;;20.97;77.92;100164.56;688250;28;1056;-79
2023/07/29 00:39:23;;;;;;;7.00;5.50;;;;;;;20.97;78.09;100161.91;685202;28;1120;-79
2023/07/29 00:39:44;;;;;;;7.23;5.60;;;;;;;21.03;78.21;100169.69;685373;28;1063;-79
2023/07/29 00:40:15;;;;;;;6.78;5.50;;;;;;;20.98;78.14;100163.63;682734;29;1205;-79
2023/07/29 00:40:36;;;;;;;7.70;5.80;;;;;;;20.99;78.02;100165.38;687984;28;1234;-79
2023/07/29 00:40:58;;;;;;;7.57;5.93;;;;;;;21.00;78.19;100166.22;683471;28;1451;-79
2023/07/29 00:41:21;;;;;;;6.78;5.85;;;;;;;21.05;78.20;100165.22;679881;28;1251;-79
2023/07/29 00:41:42;;;;;;;6.70;5.80;;;;;;;21.04;77.96;100168.78;677892;28;1240;-80
2023/07/29 00:42:03;;;;;;;7.53;5.60;;;;;;;21.05;77.98;100173.19;677527;29;1022;-79
2023/07/29 00:42:24;;;;;;;8.00;5.72;;;;;;;21.02;78.25;100167.94;682537;28;1018;-79
2023/07/29 00:42:45;;;;;;;7.70;5.80;;;;;;;21.02;78.02;100162.63;683562;28;1248;-79
2023/07/29 00:43:05;;;;;;;7.70;5.70;;;;;;;21.01;77.94;100160.91;682682;28;1377;-79
2023/07/29 00:43:26;;;;;;;7.40;5.70;;;;;;;21.02;78.09;100159.97;685050;28;1969;-79
2023/07/29 00:43:47;;;;;;;7.20;5.50;;;;;;;21.02;78.07;100162.63;687575;28;1196;-79
2023/07/29 00:44:07;;;;;;;6.13;5.40;;;;;;;21.04;77.99;100163.50;690686;28;1087;-80
2023/07/29 00:44:28;;;;;;;7.18;5.60;;;;;;;21.01;78.02;100157.41;687768;28;1070;-79
2023/07/29 00:44:49;;;;;;;8.00;5.90;;;;;;;21.04;77.84;100163.50;688498;28;1181;-80
2023/07/29 00:45:10;;;;;;;8.60;6.20;;;;;;;21.01;78.11;100152.94;682534;28;1061;-79
2023/07/29 00:45:31;;;;;;;7.47;6.10;;;;;;;21.02;77.95;100154.69;679848;29;1148;-79
2023/07/29 00:45:52;;;;;;;7.07;6.03;;;;;;;21.05;78.01;100165.22;688078;28;1559;-79
2023/07/29 00:46:14;;;;;;;7.18;5.90;;;;;;;21.05;78.21;100165.22;685337;28;980;-80
2023/07/29 00:46:38;;;;;;;7.93;5.60;;;;;;;21.05;78.01;100159.94;680031;28;1202;-79
2023/07/29 00:47:02;;;;;;;8.23;5.60;;;;;;;21.04;78.05;100163.50;683268;28;1334;-78
2023/07/29 00:47:25;;;;;;;8.07;5.80;;;;;;;21.04;78.06;100157.31;682580;29;943;-79
2023/07/29 00:47:47;;;;;;;7.60;5.90;;;;;;;21.03;78.11;100161.72;685349;28;1279;-80
2023/07/29 00:48:07;;;;;;;8.80;5.70;;;;;;;21.07;78.17;100160.75;688050;28;981;-79
2023/07/29 00:48:28;;;;;;;9.00;5.80;;;;;;;21.06;78.17;100155.47;685043;28;1303;-79
2023/07/29 00:48:50;;;;;;;9.50;5.93;;;;;;;21.08;78.07;100158.94;685298;28;1342;-79
2023/07/29 00:49:11;;;;;;;7.45;6.03;;;;;;;21.08;77.97;100159.84;685292;28;1297;-79
2023/07/29 00:49:32;;;;;;;7.07;5.93;;;;;;;21.10;78.09;100163.31;685078;28;1132;-79
2023/07/29 00:49:53;;;;;;;6.72;5.88;;;;;;;21.10;78.36;100151.84;682972;29;843;-79
2023/07/29 00:50:15;;;;;;;7.07;5.70;;;;;;;21.19;77.93;100148.94;682639;29;1005;-79
2023/07/29 00:50:36;;;;;;;6.25;5.43;;;;;;;21.16;77.98;100157.00;687963;28;984;-79
2023/07/29 00:50:57;;;;;;;8.07;5.60;;;;;;;21.16;78.18;100158.78;688153;28;1956;-79
2023/07/29 00:51:18;;;;;;;8.07;5.40;;;;;;;21.14;78.16;100165.91;687690;28;1181;-79
2023/07/29 00:51:39;;;;;;;8.43;5.82;;;;;;;21.14;78.04;100152.63;687919;28;909;-79
2023/07/29 00:51:59;;;;;;;7.00;5.97;;;;;;;21.14;77.92;100155.28;682772;29;851;-78
2023/07/29 00:52:20;;;;;;;7.40;6.20;;;;;;;21.13;78.17;100153.56;682344;28;1193;-79
2023/07/29 00:52:41;;;;;;;7.80;6.00;;;;;;;21.14;78.13;100157.94;685279;28;1018;-79
2023/07/29 00:53:02;;;;;;;7.70;5.90;;;;;;;21.11;78.05;100142.97;686526;28;1261;-79
2023/07/29 00:53:22;;;;;;;7.18;5.50;;;;;;;21.12;78.08;100154.44;687792;28;1302;-79
2023/07/29 00:53:44;;;;;;;7.10;5.60;;;;;;;21.12;77.96;100154.44;685308;28;1283;-79
2023/07/29 00:54:05;;;;;;;7.30;5.53;;;;;;;21.10;78.07;100155.34;685338;28;1341;-79
2023/07/29 00:54:27;;;;;;;7.25;5.80;;;;;;;21.07;78.07;100144.84;685071;28;969;-79
2023/07/29 00:54:47;;;;;;;6.32;5.40;;;;;;;21.07;77.85;100150.13;680646;28;1206;-79
2023/07/29 00:55:11;;;;;;;6.40;5.60;;;;;;;21.06;77.98;100156.38;682776;28;997;-79
2023/07/29 00:55:32;;;;;;;6.10;5.50;;;;;;;21.08;77.94;100157.19;680065;28;1335;-79
2023/07/29 00:55:53;;;;;;;6.40;5.60;;;;;;;21.05;77.95;100157.28;687919;28;910;-79
2023/07/29 00:56:14;;;;;;;6.53;5.78;;;;;;;21.04;78.03;100152.88;688093;28;1095;-79
2023/07/29 00:56:35;;;;;;;6.72;5.90;;;;;;;21.06;78.03;100156.38;685095;28;1309;-80
2023/07/29 00:56:56;;;;;;;6.40;5.68;;;;;;;21.01;78.03;100152.94;677645;29;1070;-79
2023/07/29 00:57:19;;;;;;;6.43;5.43;;;;;;;21.02;77.79;100157.34;682435;29;1115;-78
2023/07/29 00:57:40;;;;;;;6.43;5.22;;;;;;;21.01;77.89;100152.09;685372;28;1325;-79
2023/07/29 00:58:00;;;;;;;7.70;5.22;;;;;;;21.00;78.03;100156.50;686139;28;771;-79
2023/07/29 00:58:21;;;;;;;7.37;5.07;;;;;;;20.97;78.11;100146.00;685030;28;1353;-79
2023/07/29 00:58:42;;;;;;;7.75;5.20;;;;;;;20.98;78.09;100153.03;682425;29;1022;-79
2023/07/29 00:59:04;;;;;;;6.95;5.68;;;;;;;21.00;78.21;100155.63;682866;29;1070;-79
2023/07/29 00:59:25;;;;;;;7.40;5.70;;;;;;;20.98;78.21;100153.03;685072;28;1275;-80
2023/07/29 00:59:46;;;;;;;7.03;5.70;;;;;;;20.95;78.18;100148.66;686115;28;1074;-79
2023/07/29 01:00:09;;;;;;;6.80;5.70;;;;;;;21.01;78.20;100163.56;685244;28;1178;-79
2023/07/29 01:00:30;;;;;;;7.35;5.72;;;;;;;20.99;78.11;100160.06;685079;28;1103;-79
2023/07/29 01:00:50;;;;;;;7.30;5.80;;;;;;;20.97;78.23;100151.28;688078;28;1041;-79
2023/07/29 01:01:12;;;;;;;7.70;5.60;;;;;;;20.94;78.21;100151.34;687932;28;1008;-79
2023/07/29 01:01:33;;;;;;;7.60;5.45;;;;;;;20.96;78.66;100154.81;687353;28;1307;-79
2023/07/29 01:01:54;;;;;;;7.28;5.10;;;;;;;20.92;78.29;100148.75;680059;28;1280;-79
2023/07/29 01:02:15;;;;;;;6.68;5.00;;;;;;;20.94;78.43;100149.59;685218;28;1087;-79
2023/07/29 01:02:35;;;;;;;8.13;5.40;;;;;;;20.92;78.48;100147.88;687932;28;1302;-79
2023/07/29 01:02:56;;;;;;;8.80;5.85;;;;;;;20.90;78.37;100145.25;685556;28;780;-79
2023/07/29 01:03:17;;;;;;;8.67;5.73;;;;;;;20.96;78.52;100155.72;680236;28;1188;-79
2023/07/29 01:03:37;;;;;;;7.55;5.78;;;;;;;20.95;78.49;100145.13;687831;28;1918;-79
2023/07/29 01:03:59;;;;;;;7.00;5.50;;;;;;;20.91;78.54;100139.03;693602;28;1246;-79
2023/07/29 01:04:20;;;;;;;6.65;5.70;;;;;;;20.93;78.61;100139.00;690295;28;1092;-79
2023/07/29 01:04:41;;;;;;;6.50;5.70;;;;;;;20.96;78.51;100145.09;685308;28;1178;-80
2023/07/29 01:05:02;;;;;;;6.78;5.90;;;;;;;20.92;78.56;100130.19;691490;28;1123;-79
2023/07/29 01:05:29;;;;;;;6.70;5.85;;;;;;;21.00;78.53;100145.00;684642;28;1324;-79
2023/07/29 01:06:18;;;;;;;7.13;6.10;;;;;;;20.97;78.50;100140.69;685946;28;1446;-79
2023/07/29 01:07:06;;;;;;;10.07;6.40;;;;;;;21.02;78.52;100151.19;690787;28;1048;-79
2023/07/29 01:07:30;;;;;;;6.93;5.75;;;;;;;21.03;78.57;100142.31;687783;28;1032;-79
2023/07/29 01:08:00;;;;;;;6.50;5.53;;;;;;;21.05;78.47;100146.66;683485;28;884;-79
2023/07/29 01:08:33;;;;;;;7.18;5.50;;;;;;;21.04;78.73;100144.03;685157;28;1089;-79
2023/07/29 01:09:02;;;;;;;7.60;5.60;;;;;;;21.05;78.62;100144.00;688082;28;905;-79
2023/07/29 01:09:35;;;;;;;6.40;5.20;;;;;;;21.06;78.54;100145.75;687504;28;1679;-79
2023/07/29 01:10:02;;;;;;;6.05;5.45;;;;;;;21.06;78.48;100148.41;690070;28;1644;-79
2023/07/29 01:10:38;;;;;;;7.00;5.75;;;;;;;21.06;78.47;100151.06;687552;28;1101;-79
2023/07/29 01:11:14;;;;;;;8.13;5.88;;;;;;;21.02;78.48;100138.78;688179;28;1208;-80
2023/07/29 01:11:53;;;;;;;8.32;5.57;;;;;;;21.05;78.43;100144.00;679786;29;2061;-80
2023/07/29 01:12:35;;;;;;;7.60;5.50;;;;;;;21.03;78.52;100143.16;676850;29;991;-79
2023/07/29 01:13:19;;;;;;;7.05;5.60;;;;;;;21.09;78.66;100148.31;682274;29;957;-80
2023/07/29 01:13:55;;;;;;;6.40;5.50;;;;;;;21.09;78.42;100150.09;684724;28;1201;-79
2023/07/29 01:14:35;;;;;;;9.48;5.75;;;;;;;21.08;78.48;100149.22;685015;28;1215;-79
2023/07/29 01:15:19;;;;;;;9.55;5.85;;;;;;;21.06;78.20;100140.44;679939;28;1294;-79
2023/07/29 01:16:11;;;;;;;6.90;5.80;;;;;;;21.12;78.50;100154.44;682004;28;1280;-79
2023/07/29 01:16:45;;;;;;;6.05;5.45;;;;;;;21.04;78.59;100134.31;687532;28;1988;-79
2023/07/29 01:17:13;;;;;;;6.13;5.22;;;;;;;21.06;78.75;100140.44;690613;28;1055;-80
2023/07/29 01:17:40;;;;;;;6.00;5.22;;;;;;;21.13;78.75;100156.22;686013;28;1040;-79
2023/07/29 01:18:26;;;;;;;6.50;5.40;;;;;;;21.14;78.65;100153.50;677827;28;1265;-79
2023/07/29 01:18:48;;;;;;;7.97;5.50;;;;;;;21.13;78.52;100148.25;682719;28;2131;-79
2023/07/29 01:19:27;;;;;;;7.63;5.38;;;;;;;21.09;78.55;100136.84;679897;29;998;-79
2023/07/29 01:19:57;;;;;;;5.80;5.13;;;;;;;21.17;78.51;100148.13;679864;29;1256;-79
2023/07/29 01:20:20;;;;;;;6.65;5.30;;;;;;;21.12;78.56;100141.19;679978;28;2102;-79
2023/07/29 01:20:43;;;;;;;7.38;5.50;;;;;;;21.12;78.34;100138.53;679874;29;1352;-79
2023/07/29 01:21:08;;;;;;;7.00;5.65;;;;;;;21.13;78.56;100138.50;679836;29;1073;-80
2023/07/29 01:21:29;;;;;;;6.50;5.80;;;;;;;21.14;78.39;100139.38;677295;29;2172;-79
2023/07/29 01:21:51;;;;;;;6.43;5.82;;;;;;;21.13;78.33;100135.00;680308;28;1250;-79
2023/07/29 01:22:13;;;;;;;6.50;5.80;;;;;;;21.13;78.44;100135.00;677332;29;1102;-79
2023/07/29 01:22:36;;;;;;;7.20;5.70;;;;;;;21.16;78.51;100140.19;677270;29;932;-80
2023/07/29 01:22:57;;;;;;;7.47;5.63;;;;;;;21.10;78.44;100131.47;677674;29;976;-79
2023/07/29 01:23:24;;;;;;;7.03;5.40;;;;;;;21.17;78.40;100148.13;682248;29;1205;-79
2023/07/29 01:23:45;;;;;;;7.18;5.80;;;;;;;21.16;78.54;100137.53;684528;28;1274;-79
2023/07/29 01:24:05;;;;;;;9.52;6.18;;;;;;;21.18;78.49;100143.69;685332;28;1016;-80
2023/07/29 01:24:26;;;;;;;11.73;6.57;;;;;;;21.12;78.47;100131.44;682404;28;1007;-79
2023/07/29 01:24:47;;;;;;;13.40;6.40;;;;;;;21.17;78.57;100136.63;680022;29;1117;-80
2023/07/29 01:25:07;;;;;;;10.37;6.10;;;;;;;21.17;78.26;100142.81;687813;28;1079;-79
2023/07/29 01:25:28;;;;;;;8.20;5.55;;;;;;;21.22;78.31;100148.00;687685;28;1028;-79
2023/07/29 01:25:49;;;;;;;6.20;5.38;;;;;;;21.18;78.49;100138.38;687455;28;882;-79
2023/07/29 01:26:10;;;;;;;7.30;5.10;;;;;;;21.18;78.46;100133.06;685252;28;984;-79
2023/07/29 01:26:30;;;;;;;7.23;5.20;;;;;;;21.15;78.41;100133.16;679823;29;1230;-79
2023/07/29 01:26:51;;;;;;;7.25;5.10;;;;;;;21.20;78.39;100139.19;682266;29;1057;-79
2023/07/29 01:27:11;;;;;;;6.90;5.53;;;;;;;21.22;78.37;100140.91;687658;28;1281;-79
2023/07/29 01:27:32;;;;;;;8.57;5.78;;;;;;;21.18;78.36;100133.06;687760;28;1072;-80
2023/07/29 01:27:55;;;;;;;9.95;5.97;;;;;;;21.20;78.34;100136.53;682624;28;1069;-79
2023/07/29 01:28:15;;;;;;;9.80;5.70;;;;;;;21.20;78.41;100136.53;680123;28;1430;-80
2023/07/29 01:28:36;;;;;;;8.50;5.53;;;;;;;21.18;78.50;100119.78;682680;28;1062;-79
2023/07/29 01:28:58;;;;;;;8.35;5.78;;;;;;;21.22;78.46;100135.59;680042;29;1191;-79
2023/07/29 01:29:19;;;;;;;8.00;5.80;;;;;;;21.18;78.48;100133.06;682436;28;1061;-80
2023/07/29 01:29:39;;;;;;;7.90;5.70;;;;;;;21.18;78.50;100125.09;682458;28;1150;-80
2023/07/29 01:30:02;;;;;;;7.97;5.60;;;;;;;21.15;78.55;100122.53;680096;29;1449;-79
2023/07/29 01:30:31;;;;;;;7.80;5.80;;;;;;;21.20;78.28;100132.13;679866;29;1188;-79
2023/07/29 01:31:16;;;;;;;7.25;5.53;;;;;;;21.18;78.42;100127.75;682728;28;1969;-79
2023/07/29 01:31:44;;;;;;;7.47;5.30;;;;;;;21.18;78.47;100128.63;679731;29;1072;-79
2023/07/29 01:32:14;;;;;;;7.80;5.60;;;;;;;21.18;78.43;100130.41;685218;28;1310;-79
2023/07/29 01:33:12;;;;;;;10.82;6.13;;;;;;;21.21;78.53;100133.00;684870;28;1124;-79
2023/07/29 01:33:42;;;;;;;7.10;5.63;;;;;;;21.20;78.46;100136.53;686307;28;1182;-79
2023/07/29 01:34:26;;;;;;;8.95;6.00;;;;;;;21.19;78.48;100142.75;682481;28;1363;-79
2023/07/29 01:35:12;;;;;;;6.85;5.60;;;;;;;21.16;78.45;100133.13;684529;28;1006;-80
2023/07/29 01:35:54;;;;;;;5.88;5.28;;;;;;;21.19;78.49;100134.78;678126;29;1166;-79
2023/07/29 01:36:26;;;;;;;6.70;5.80;;;;;;;21.17;78.59;100129.56;682090;29;1476;-80
2023/07/29 01:36:51;;;;;;;6.57;5.70;;;;;;;21.12;78.41;100122.59;687804;28;1117;-79
2023/07/29 01:37:18;;;;;;;6.90;5.80;;;;;;;21.14;78.50;100126.13;687887;28;973;-79
2023/07/29 01:37:41;;;;;;;7.82;5.85;;;;;;;21.16;78.64;100129.59;685155;28;1199;-79
2023/07/29 01:38:12;;;;;;;7.15;5.72;;;;;;;21.14;78.53;100126.97;685303;28;1144;-79
2023/07/29 01:38:36;;;;;;;7.53;5.80;;;;;;;21.19;78.59;100134.78;682730;28;1347;-79
2023/07/29 01:38:57;;;;;;;8.50;5.70;;;;;;;21.14;78.64;100126.13;687929;28;1180;-79
2023/07/29 01:39:22;;;;;;;8.32;5.63;;;;;;;21.10;78.77;100120.88;687699;28;1116;-80
2023/07/29 01:39:46;;;;;;;7.03;5.82;;;;;;;21.13;78.87;100129.69;685194;28;942;-79
2023/07/29 01:40:10;;;;;;;6.28;5.65;;;;;;;21.15;78.76;100127.84;679805;29;1144;-79
2023/07/29 01:40:31;;;;;;;6.18;5.57;;;;;;;21.13;78.49;100132.34;682469;29;1097;-79
2023/07/29 01:40:53;;;;;;;6.20;5.60;;;;;;;21.11;78.56;100116.44;690717;28;1258;-79
2023/07/29 01:41:15;;;;;;;6.22;5.57;;;;;;;21.13;78.69;100121.72;687589;28;1483;-79
2023/07/29 01:41:37;;;;;;;6.93;5.70;;;;;;;21.09;78.49;100115.63;682498;28;1042;-79
2023/07/29 01:41:58;;;;;;;8.15;5.70;;;;;;;21.06;78.59;100108.63;682425;29;1635;-79
2023/07/29 01:42:19;;;;;;;9.88;5.70;;;;;;;21.08;78.57;100112.09;680039;28;1256;-79
2023/07/29 01:42:39;;;;;;;11.65;5.90;;;;;;;21.06;78.49;100113.91;682402;29;1067;-79
2023/07/29 01:43:00;;;;;;;9.20;5.78;;;;;;;21.06;78.69;100113.91;683185;28;1277;-79
2023/07/29 01:43:23;;;;;;;9.20;5.60;;;;;;;21.05;78.70;100106.88;676972;29;1139;-79
2023/07/29 01:43:46;;;;;;;7.32;5.40;;;;;;;21.06;78.70;100113.91;679888;29;1105;-79
2023/07/29 01:44:07;;;;;;;7.72;5.50;;;;;;;21.05;78.65;100109.53;685187;28;1253;-79
2023/07/29 01:44:28;;;;;;;6.97;5.60;;;;;;;21.02;78.65;100108.75;677000;28;1334;-80
2023/07/29 01:44:48;;;;;;;7.80;5.70;;;;;;;21.00;78.72;100103.47;680002;29;1391;-79
2023/07/29 01:45:09;;;;;;;7.00;5.30;;;;;;;20.96;78.69;100100.03;682417;29;1044;-79
2023/07/29 01:45:35;;;;;;;6.50;5.20;;;;;;;20.96;78.80;100109.75;682255;29;1104;-80
2023/07/29 01:45:56;;;;;;;6.45;5.30;;;;;;;20.98;78.74;100112.38;683105;28;1123;-79
2023/07/29 01:46:17;;;;;;;7.20;5.40;;;;;;;20.92;78.81;100105.44;687076;28;1375;-79
2023/07/29 01:46:37;;;;;;;8.40;5.70;;;;;;;20.92;78.82;100105.44;687887;28;1187;-79
2023/07/29 01:46:59;;;;;;;8.70;6.10;;;;;;;20.92;78.83;100110.75;682751;29;907;-79
2023/07/29 01:47:22;;;;;;;7.80;6.00;;;;;;;20.90;78.69;100108.13;682386;29;1183;-79
2023/07/29 01:47:43;;;;;;;6.82;5.78;;;;;;;20.88;78.71;100111.72;682504;29;1173;-79
2023/07/29 01:48:07;;;;;;;6.33;5.50;;;;;;;20.88;78.86;100114.38;685336;28;1300;-79
2023/07/29 01:48:30;;;;;;;6.53;5.43;;;;;;;20.91;78.86;100115.16;682295;29;1356;-79
2023/07/29 01:48:50;;;;;;;7.00;5.50;;;;;;;20.89;78.87;100117.00;680044;29;1107;-79
2023/07/29 01:49:11;;;;;;;7.03;5.50;;;;;;;20.81;78.85;100103.94;680017;29;1113;-79
2023/07/29 01:49:32;;;;;;;6.82;5.60;;;;;;;20.84;78.81;100112.72;682148;29;1406;-79
2023/07/29 01:49:53;;;;;;;6.43;5.65;;;;;;;20.82;78.85;100108.34;680277;29;847;-79
2023/07/29 01:50:14;;;;;;;6.70;5.60;;;;;;;20.78;78.80;100109.31;684902;28;1204;-79
2023/07/29 01:50:35;;;;;;;7.25;5.60;;;;;;;20.80;78.90;100112.81;687772;28;1039;-80
2023/07/29 01:50:56;;;;;;;7.20;5.57;;;;;;;20.86;78.57;100116.19;682726;29;789;-79